createdAt,value
2022-10-15T00:30:26.033Z,998.43
2022-10-15T00:31:06.371Z,998.43
2022-10-15T00:31:46.865Z,998.4
2022-10-15T00:32:27.371Z,998.42
2022-10-15T00:33:07.833Z,998.4
2022-10-15T00:33:48.324Z,998.39
2022-10-15T00:34:28.819Z,998.33
2022-10-15T00:35:09.279Z,998.34
2022-10-15T00:35:49.798Z,998.36
2022-10-15T00:36:30.258Z,998.36
2022-10-15T00:37:10.800Z,998.38
2022-10-15T00:37:51.271Z,998.36
2022-10-15T00:38:31.760Z,998.37
2022-10-15T00:39:12.215Z,998.3
2022-10-15T00:39:52.778Z,998.31
2022-10-15T00:40:33.174Z,998.32
2022-10-15T00:41:13.625Z,998.35
2022-10-15T00:41:54.114Z,998.32
2022-10-15T00:42:34.623Z,998.32
2022-10-15T00:43:15.060Z,998.3
2022-10-15T00:43:55.590Z,998.31
2022-10-15T00:44:36.079Z,998.31
2022-10-15T00:45:16.585Z,998.31
2022-10-15T00:45:57.102Z,998.32
2022-10-15T00:46:37.547Z,998.31
2022-10-15T00:47:17.975Z,998.33
2022-10-15T00:47:58.482Z,998.35
2022-10-15T00:48:39.008Z,998.35
2022-10-15T00:49:19.462Z,998.34
2022-10-15T00:49:59.956Z,998.38
2022-10-15T00:50:40.435Z,998.37
2022-10-15T00:51:20.934Z,998.42
2022-10-15T00:52:01.406Z,998.43
2022-10-15T00:52:41.881Z,998.4
2022-10-15T00:53:22.344Z,998.4
2022-10-15T00:54:02.838Z,998.44
2022-10-15T00:54:43.299Z,998.39
2022-10-15T00:55:23.779Z,998.39
2022-10-15T00:56:04.304Z,998.42
2022-10-15T00:56:44.735Z,998.45
2022-10-15T00:57:25.189Z,998.47
2022-10-15T00:58:05.699Z,998.51
2022-10-15T00:58:46.201Z,998.5
2022-10-15T00:59:26.634Z,998.54
2022-10-15T01:00:07.113Z,998.58
2022-10-15T01:00:47.671Z,998.57
2022-10-15T01:01:28.189Z,998.58
2022-10-15T01:02:08.558Z,998.54
2022-10-15T01:02:49.039Z,998.56
2022-10-15T01:03:44.008Z,998.5
2022-10-15T01:04:24.478Z,998.52
2022-10-15T01:05:04.967Z,998.55
2022-10-15T01:05:45.480Z,998.56
2022-10-15T01:06:25.984Z,998.53
2022-10-15T01:07:06.490Z,998.55
2022-10-15T01:07:47.011Z,998.57
2022-10-15T01:08:27.445Z,998.56
2022-10-15T01:09:07.937Z,998.59
2022-10-15T01:09:48.412Z,998.61
2022-10-15T01:11:09.429Z,998.56
2022-10-15T01:11:49.857Z,998.55
2022-10-15T01:12:30.337Z,998.54
2022-10-15T01:13:10.807Z,998.48
2022-10-15T01:13:51.298Z,998.44
2022-10-15T01:14:31.747Z,998.52
2022-10-15T01:15:12.214Z,998.49
2022-10-15T01:15:52.754Z,998.48
2022-10-15T01:16:33.208Z,998.47
2022-10-15T01:17:13.623Z,998.42
2022-10-15T01:17:54.095Z,998.44
2022-10-15T01:18:34.603Z,998.52
2022-10-15T01:19:15.078Z,998.49
2022-10-15T01:19:55.573Z,998.52
2022-10-15T01:20:36.022Z,998.52
2022-10-15T01:21:16.545Z,998.52
2022-10-15T01:21:56.987Z,998.51
2022-10-15T01:22:37.435Z,998.52
2022-10-15T01:23:19.293Z,998.47
2022-10-15T01:23:58.542Z,998.49
2022-10-15T01:24:39.025Z,998.49
2022-10-15T01:25:19.594Z,998.46
2022-10-15T01:25:59.975Z,998.43
2022-10-15T01:26:40.444Z,998.48
2022-10-15T01:27:21.014Z,998.43
2022-10-15T01:28:01.501Z,998.41
2022-10-15T01:28:42.058Z,998.39
2022-10-15T01:29:22.533Z,998.4
2022-10-15T01:30:03.041Z,998.37
2022-10-15T01:30:43.543Z,998.37
2022-10-15T01:31:24.006Z,998.35
2022-10-15T01:32:04.473Z,998.35
2022-10-15T01:32:44.940Z,998.42
2022-10-15T01:33:25.424Z,998.42
2022-10-15T01:34:05.952Z,998.43
2022-10-15T01:34:46.440Z,998.44
2022-10-15T01:36:07.431Z,998.48
2022-10-15T01:36:47.848Z,998.49
2022-10-15T01:37:28.363Z,998.49
2022-10-15T01:38:08.810Z,998.5
2022-10-15T01:38:49.290Z,998.49
2022-10-15T01:39:29.793Z,998.49
2022-10-15T01:40:10.282Z,998.49
2022-10-15T01:40:50.763Z,998.52
2022-10-15T01:41:31.246Z,998.52
2022-10-15T01:42:11.767Z,998.51
2022-10-15T01:42:52.258Z,998.52
2022-10-15T01:43:32.761Z,998.52
2022-10-15T01:45:45.916Z,998.54
2022-10-15T01:46:26.230Z,998.54
2022-10-15T01:47:06.757Z,998.58
2022-10-15T01:47:47.230Z,998.54
2022-10-15T01:48:27.744Z,998.55
2022-10-15T01:49:08.207Z,998.53
2022-10-15T01:49:48.654Z,998.51
2022-10-15T01:50:29.130Z,998.51
2022-10-15T01:51:09.669Z,998.51
2022-10-15T01:51:50.112Z,998.5
2022-10-15T01:53:11.111Z,998.44
2022-10-15T01:53:51.619Z,998.48
2022-10-15T01:54:32.117Z,998.44
2022-10-15T01:55:12.657Z,998.47
2022-10-15T01:55:53.208Z,998.52
2022-10-15T01:56:33.686Z,998.42
2022-10-15T01:57:14.128Z,998.46
2022-10-15T01:57:54.645Z,998.45
2022-10-15T01:58:35.101Z,998.45
2022-10-15T01:59:15.599Z,998.42
2022-10-15T02:04:31.936Z,998.31
2022-10-15T02:05:12.468Z,998.29
2022-10-15T02:05:52.987Z,998.26
2022-10-15T02:06:33.521Z,998.28
2022-10-15T02:07:13.967Z,998.3
2022-10-15T02:07:54.498Z,998.3
2022-10-15T02:09:15.507Z,998.3
2022-10-15T02:09:56.030Z,998.28
2022-10-15T02:10:36.546Z,998.31
2022-10-15T02:11:16.980Z,998.33
2022-10-15T02:11:57.491Z,998.32
2022-10-15T02:12:37.954Z,998.33
2022-10-15T02:13:18.708Z,998.33
2022-10-15T02:13:59.130Z,998.32
2022-10-15T02:14:39.636Z,998.36
2022-10-15T02:15:20.184Z,998.33
2022-10-15T02:16:00.653Z,998.36
2022-10-15T02:16:41.180Z,998.34
2022-10-15T02:17:21.710Z,998.36
2022-10-15T02:18:02.169Z,998.32
2022-10-15T02:18:42.717Z,998.33
2022-10-15T02:19:23.152Z,998.35
2022-10-15T02:20:03.709Z,998.36
2022-10-15T02:20:44.148Z,998.4
2022-10-15T02:21:24.599Z,998.4
2022-10-15T02:22:05.096Z,998.42
2022-10-15T02:22:45.533Z,998.37
2022-10-15T02:23:26.011Z,998.45
2022-10-15T02:24:06.547Z,998.4
2022-10-15T02:24:48.687Z,998.38
2022-10-15T02:25:27.529Z,998.42
2022-10-15T02:26:07.992Z,998.38
2022-10-15T02:26:48.490Z,998.38
2022-10-15T02:27:28.978Z,998.4
2022-10-15T02:28:09.505Z,998.39
2022-10-15T02:28:50.044Z,998.38
2022-10-15T02:29:30.427Z,998.36
2022-10-15T02:30:10.925Z,998.39
2022-10-15T02:30:51.405Z,998.34
2022-10-15T02:31:31.934Z,998.38
2022-10-15T02:32:12.594Z,998.35
2022-10-15T02:32:53.030Z,998.35
2022-10-15T02:33:33.487Z,998.33
2022-10-15T02:34:14.024Z,998.31
2022-10-15T02:34:54.499Z,998.34
2022-10-15T02:35:35.039Z,998.33
2022-10-15T02:36:15.499Z,998.33
2022-10-15T02:36:55.969Z,998.29
2022-10-15T02:37:36.604Z,998.36
2022-10-15T02:38:17.047Z,998.29
2022-10-15T02:38:57.591Z,998.3
2022-10-15T02:39:38.031Z,998.31
2022-10-15T02:40:18.447Z,998.33
2022-10-15T02:40:58.935Z,998.33
2022-10-15T02:41:39.417Z,998.35
2022-10-15T02:42:20.032Z,998.37
2022-10-15T02:43:00.396Z,998.38
2022-10-15T02:43:40.864Z,998.36
2022-10-15T02:44:21.365Z,998.37
2022-10-15T02:45:01.815Z,998.35
2022-10-15T02:45:42.322Z,998.35
2022-10-15T02:46:22.877Z,998.39
2022-10-15T02:47:43.941Z,998.31
2022-10-15T02:48:24.467Z,998.29
2022-10-15T02:49:04.886Z,998.29
2022-10-15T02:49:45.394Z,998.32
2022-10-15T02:50:25.824Z,998.35
2022-10-15T02:51:06.341Z,998.33
2022-10-15T02:51:46.798Z,998.35
2022-10-15T02:52:27.251Z,998.37
2022-10-15T02:53:07.800Z,998.37
2022-10-15T02:53:48.267Z,998.41
2022-10-15T02:54:28.794Z,998.36
2022-10-15T02:55:09.281Z,998.37
2022-10-15T02:55:49.801Z,998.4
2022-10-15T02:57:10.754Z,998.32
2022-10-15T02:57:51.232Z,998.32
2022-10-15T02:58:31.783Z,998.33
2022-10-15T02:59:12.231Z,998.31
2022-10-15T02:59:52.694Z,998.31
2022-10-15T03:00:33.195Z,998.32
2022-10-15T03:01:13.782Z,998.34
2022-10-15T03:01:54.260Z,998.29
2022-10-15T03:02:34.731Z,998.31
2022-10-15T03:03:15.265Z,998.33
2022-10-15T03:03:55.764Z,998.34
2022-10-15T03:05:16.726Z,998.33
2022-10-15T03:05:57.160Z,998.34
2022-10-15T03:06:37.708Z,998.31
2022-10-15T03:07:18.163Z,998.3
2022-10-15T03:07:58.631Z,998.27
2022-10-15T03:08:39.153Z,998.19
2022-10-15T03:09:19.672Z,998.18
2022-10-15T03:10:00.203Z,998.18
2022-10-15T03:10:40.648Z,998.16
2022-10-15T03:11:21.212Z,998.16
2022-10-15T03:12:42.223Z,998.18
2022-10-15T03:13:22.688Z,998.21
2022-10-15T03:14:03.130Z,998.22
2022-10-15T03:14:43.711Z,998.23
2022-10-15T03:15:24.136Z,998.22
2022-10-15T03:16:04.616Z,998.15
2022-10-15T03:16:45.112Z,998.21
2022-10-15T03:17:26.155Z,998.2
2022-10-15T03:18:06.232Z,998.18
2022-10-15T03:18:46.786Z,998.14
2022-10-15T03:19:27.283Z,998.14
2022-10-15T03:20:07.737Z,998.15
2022-10-15T03:20:48.222Z,998.18
2022-10-15T03:21:28.763Z,998.2
2022-10-15T03:22:09.348Z,998.17
2022-10-15T03:22:49.764Z,998.19
2022-10-15T03:26:20.168Z,998.22
2022-10-15T03:27:00.648Z,998.19
2022-10-15T03:27:41.152Z,998.17
2022-10-15T03:28:21.648Z,998.18
2022-10-15T03:29:02.026Z,998.17
2022-10-15T03:29:42.516Z,998.21
2022-10-15T03:30:22.986Z,998.24
2022-10-15T03:31:03.442Z,998.23
2022-10-15T03:31:44.016Z,998.22
2022-10-15T03:32:24.561Z,998.18
2022-10-15T03:33:04.955Z,998.18
2022-10-15T03:33:45.407Z,998.2
2022-10-15T03:34:26.283Z,998.19
2022-10-15T03:35:06.841Z,998.2
2022-10-15T03:35:47.322Z,998.21
2022-10-15T03:36:28.085Z,998.2
2022-10-15T03:37:08.405Z,998.25
2022-10-15T03:37:49.209Z,998.26
2022-10-15T03:38:29.839Z,998.23
2022-10-15T03:42:40.475Z,998.21
2022-10-15T03:43:29.320Z,998.21
2022-10-15T03:44:18.735Z,998.19
2022-10-15T03:45:07.307Z,998.19
2022-10-15T03:45:55.862Z,998.17
2022-10-15T03:46:44.865Z,998.18
2022-10-15T03:47:33.147Z,998.12
2022-10-15T03:48:21.991Z,998.13
2022-10-15T03:49:11.864Z,998.16
2022-10-15T03:49:59.655Z,998.17
2022-10-15T03:50:48.866Z,998.21
2022-10-15T03:51:37.482Z,998.16
2022-10-15T03:52:26.773Z,998.22
2022-10-15T03:53:15.655Z,998.24
2022-10-15T03:54:04.797Z,998.25
2022-10-15T03:54:53.616Z,998.29
2022-10-15T03:55:42.488Z,998.27
2022-10-15T03:56:31.742Z,998.31
2022-10-15T03:57:20.483Z,998.31
2022-10-15T03:58:09.126Z,998.31
2022-10-15T04:00:43.269Z,998.35
2022-10-15T04:01:23.649Z,998.33
2022-10-15T04:02:04.085Z,998.33
2022-10-15T04:02:44.517Z,998.33
2022-10-15T04:03:25.030Z,998.3
2022-10-15T04:04:05.536Z,998.32
2022-10-15T04:04:46.147Z,998.32
2022-10-15T04:05:26.742Z,998.32
2022-10-15T04:06:07.659Z,998.3
2022-10-15T04:06:48.328Z,998.31
2022-10-15T04:07:28.502Z,998.28
2022-10-15T04:08:09.031Z,998.25
2022-10-15T04:08:49.572Z,998.26
2022-10-15T04:09:30.037Z,998.26
2022-10-15T04:10:10.477Z,998.23
2022-10-15T04:10:50.997Z,998.24
2022-10-15T04:11:32.066Z,998.24
2022-10-15T04:12:12.717Z,998.23
2022-10-15T04:12:53.326Z,998.21
2022-10-15T04:13:34.335Z,998.22
2022-10-15T04:14:15.131Z,998.2
2022-10-15T04:14:55.399Z,998.21
2022-10-15T04:15:36.095Z,998.18
2022-10-15T04:16:16.399Z,998.2
2022-10-15T04:17:37.833Z,998.22
2022-10-15T04:18:18.632Z,998.19
2022-10-15T04:18:59.228Z,998.13
2022-10-15T04:19:39.384Z,998.15
2022-10-15T04:24:15.404Z,997.93
2022-10-15T04:24:55.817Z,997.96
2022-10-15T04:25:36.345Z,997.94
2022-10-15T04:26:16.813Z,997.96
2022-10-15T04:26:57.284Z,997.99
2022-10-15T04:27:37.780Z,997.97
2022-10-15T04:28:18.305Z,997.95
2022-10-15T04:28:58.783Z,997.96
2022-10-15T04:30:20.463Z,997.98
2022-10-15T04:31:00.880Z,998
2022-10-15T04:34:00.249Z,997.99
2022-10-15T04:34:40.450Z,998.04
2022-10-15T04:35:20.986Z,998.03
2022-10-15T04:36:01.455Z,998.03
2022-10-15T04:36:42.017Z,998.03
2022-10-15T04:37:22.858Z,998.07
2022-10-15T04:38:03.301Z,998.07
2022-10-15T04:38:43.530Z,998.08
2022-10-15T04:39:24.027Z,998.03
2022-10-15T04:40:04.438Z,998.05
2022-10-15T04:40:45.139Z,998.08
2022-10-15T04:41:25.713Z,998.12
2022-10-15T04:42:06.190Z,998.1
2022-10-15T04:42:46.643Z,998.17
2022-10-15T04:43:27.247Z,998.17
2022-10-15T04:44:07.928Z,998.2
2022-10-15T04:44:48.392Z,998.23
2022-10-15T04:45:28.873Z,998.22
2022-10-15T04:46:09.391Z,998.24
2022-10-15T04:46:49.868Z,998.26
2022-10-15T04:47:30.364Z,998.24
2022-10-15T04:48:10.991Z,998.25
2022-10-15T04:48:51.696Z,998.27
2022-10-15T04:49:32.178Z,998.26
2022-10-15T04:50:12.695Z,998.28
2022-10-15T04:50:53.208Z,998.27
2022-10-15T04:55:15.762Z,998.26
2022-10-15T04:55:55.754Z,998.2
2022-10-15T04:56:36.252Z,998.19
2022-10-15T04:57:17.147Z,998.24
2022-10-15T04:57:57.636Z,998.2
2022-10-15T04:58:38.146Z,998.22
2022-10-15T04:59:18.726Z,998.22
2022-10-15T04:59:59.456Z,998.21
2022-10-15T05:00:39.658Z,998.18
2022-10-15T05:01:20.471Z,998.21
2022-10-15T05:02:00.701Z,998.21
2022-10-15T05:02:41.380Z,998.21
2022-10-15T05:03:21.710Z,998.25
2022-10-15T05:04:02.092Z,998.25
2022-10-15T05:04:42.606Z,998.25
2022-10-15T05:05:23.122Z,998.24
2022-10-15T05:06:03.527Z,998.23
2022-10-15T05:07:24.960Z,998.26
2022-10-15T05:08:05.225Z,998.26
2022-10-15T05:08:45.856Z,998.24
2022-10-15T05:09:26.559Z,998.26
2022-10-15T05:10:07.151Z,998.26
2022-10-15T05:10:47.628Z,998.22
2022-10-15T05:11:28.312Z,998.24
2022-10-15T05:12:09.587Z,998.23
2022-10-15T05:12:50.326Z,998.24
2022-10-15T05:13:29.823Z,998.27
2022-10-15T05:14:50.880Z,998.24
2022-10-15T05:15:31.393Z,998.23
2022-10-15T05:16:11.883Z,998.2
2022-10-15T05:16:52.409Z,998.21
2022-10-15T05:17:32.845Z,998.17
2022-10-15T05:18:13.398Z,998.21
2022-10-15T05:18:53.944Z,998.14
2022-10-15T05:19:35.166Z,998.16
2022-10-15T05:20:15.486Z,998.16
2022-10-15T05:20:55.985Z,998.17
2022-10-15T05:21:36.605Z,998.18
2022-10-15T05:22:17.142Z,998.16
2022-10-15T05:22:58.054Z,998.16
2022-10-15T05:23:38.540Z,998.16
2022-10-15T05:24:19.322Z,998.15
2022-10-15T05:25:00.421Z,998.14
2022-10-15T05:25:40.967Z,998.14
2022-10-15T05:26:21.607Z,998.09
2022-10-15T05:27:02.889Z,998.13
2022-10-15T05:27:42.497Z,998.12
2022-10-15T05:28:23.065Z,998.13
2022-10-15T05:29:03.539Z,998.14
2022-10-15T05:29:44.101Z,998.12
2022-10-15T05:30:24.638Z,998.15
2022-10-15T05:31:05.158Z,998.13
2022-10-15T05:32:26.149Z,998.12
2022-10-15T05:33:06.608Z,998.14
2022-10-15T05:33:47.104Z,998.13
2022-10-15T05:34:27.561Z,998.15
2022-10-15T05:37:26.806Z,998.21
2022-10-15T05:38:07.020Z,998.2
2022-10-15T05:41:25.909Z,998.22
2022-10-15T05:42:06.464Z,998.2
2022-10-15T05:42:46.834Z,998.24
2022-10-15T05:43:27.199Z,998.22
2022-10-15T05:44:08.137Z,998.19
2022-10-15T05:44:48.618Z,998.17
2022-10-15T05:45:29.207Z,998.16
2022-10-15T05:46:09.699Z,998.16
2022-10-15T05:50:06.936Z,998.2
2022-10-15T05:50:44.531Z,998.18
2022-10-15T05:51:24.988Z,998.17
2022-10-15T05:52:05.457Z,998.18
2022-10-15T05:52:45.929Z,998.18
2022-10-15T06:31:57.042Z,998.31
2022-10-15T06:32:37.478Z,998.3
2022-10-15T06:33:18.077Z,998.34
2022-10-15T06:33:59.283Z,998.32
2022-10-15T06:34:39.720Z,998.3
2022-10-15T06:35:20.251Z,998.34
2022-10-15T06:39:21.336Z,998.39
2022-10-15T06:40:02.236Z,998.32
2022-10-15T06:40:42.664Z,998.33
2022-10-15T06:41:23.118Z,998.34
2022-10-15T06:42:03.598Z,998.38
2022-10-15T06:42:44.152Z,998.38
2022-10-15T06:43:24.606Z,998.4
2022-10-15T06:44:05.122Z,998.43
2022-10-15T06:44:45.643Z,998.42
2022-10-15T06:45:26.047Z,998.42
2022-10-15T06:46:06.632Z,998.42
2022-10-15T06:46:47.102Z,998.4
2022-10-15T06:47:27.613Z,998.43
2022-10-15T06:48:08.040Z,998.42
2022-10-15T06:48:48.567Z,998.42
2022-10-15T06:49:29.038Z,998.41
2022-10-15T06:50:09.550Z,998.44
2022-10-15T06:51:30.643Z,998.43
2022-10-15T06:52:11.124Z,998.48
2022-10-15T06:52:51.711Z,998.47
2022-10-15T06:53:32.188Z,998.47
2022-10-15T06:54:12.571Z,998.47
2022-10-15T06:54:53.031Z,998.42
2022-10-15T06:55:33.535Z,998.39
2022-10-15T06:56:14.021Z,998.39
2022-10-15T06:56:54.542Z,998.38
2022-10-15T06:57:35.024Z,998.41
2022-10-15T06:58:15.533Z,998.4
2022-10-15T06:58:56.035Z,998.41
2022-10-15T06:59:37.167Z,998.38
2022-10-15T07:00:16.981Z,998.39
2022-10-15T07:00:57.456Z,998.41
2022-10-15T07:01:39.832Z,998.41
2022-10-15T07:02:18.416Z,998.39
2022-10-15T07:02:58.935Z,998.44
2022-10-15T07:03:39.600Z,998.41
2022-10-15T07:04:19.982Z,998.44
2022-10-15T07:05:00.440Z,998.46
2022-10-15T07:05:40.911Z,998.43
2022-10-15T07:06:21.419Z,998.42
2022-10-15T07:07:01.968Z,998.43
2022-10-15T07:07:42.446Z,998.46
2022-10-15T07:09:03.413Z,998.5
2022-10-15T07:09:43.886Z,998.49
2022-10-15T07:10:24.437Z,998.49
2022-10-15T07:18:54.012Z,998.57
2022-10-15T07:19:34.315Z,998.54
2022-10-15T07:20:15.748Z,998.51
2022-10-15T07:20:55.479Z,998.53
2022-10-15T07:21:35.963Z,998.52
2022-10-15T07:22:16.520Z,998.48
2022-10-15T07:22:57.068Z,998.5
2022-10-15T07:23:37.518Z,998.52
2022-10-15T07:24:17.975Z,998.48
2022-10-15T07:24:58.539Z,998.47
2022-10-15T07:25:38.981Z,998.46
2022-10-15T07:26:19.454Z,998.48
2022-10-15T07:27:00.654Z,998.48
2022-10-15T07:27:40.418Z,998.43
2022-10-15T07:28:21.026Z,998.42
2022-10-15T07:29:01.480Z,998.41
2022-10-15T07:29:42.041Z,998.4
2022-10-15T07:30:22.889Z,998.37
2022-10-15T07:31:03.392Z,998.39
2022-10-15T07:32:24.544Z,998.43
2022-10-15T07:33:04.968Z,998.44
2022-10-15T07:33:45.376Z,998.47
2022-10-15T07:34:26.126Z,998.46
2022-10-15T07:35:07.004Z,998.42
2022-10-15T07:35:47.120Z,998.44
2022-10-15T07:37:08.446Z,998.46
2022-10-15T07:37:48.917Z,998.48
2022-10-15T07:38:29.535Z,998.46
2022-10-15T07:39:09.949Z,998.42
2022-10-15T07:39:50.473Z,998.47
2022-10-15T07:40:30.953Z,998.46
2022-10-15T07:41:11.523Z,998.48
2022-10-15T07:41:51.935Z,998.46
2022-10-15T07:46:37.489Z,998.45
2022-10-15T07:47:17.924Z,998.44
2022-10-15T07:47:58.451Z,998.4
2022-10-15T07:48:38.922Z,998.4
2022-10-15T07:49:19.422Z,998.41
2022-10-15T07:49:59.942Z,998.34
2022-10-15T07:50:42.295Z,998.3
2022-10-15T07:51:20.940Z,998.3
2022-10-15T07:52:01.418Z,998.33
2022-10-15T07:52:41.952Z,998.32
2022-10-15T07:53:22.731Z,998.29
2022-10-15T07:54:02.991Z,998.29
2022-10-15T07:54:43.495Z,998.26
2022-10-15T07:55:23.994Z,998.28
2022-10-15T07:56:04.517Z,998.29
2022-10-15T07:56:45.027Z,998.22
2022-10-15T07:59:43.975Z,998.21
2022-10-15T08:00:24.398Z,998.23
2022-10-15T08:01:04.863Z,998.22
2022-10-15T08:01:47.060Z,998.2
2022-10-15T08:02:26.137Z,998.17
2022-10-15T08:03:06.449Z,998.19
2022-10-15T08:03:46.877Z,998.19
2022-10-15T08:04:27.470Z,998.22
2022-10-15T08:05:07.929Z,998.22
2022-10-15T08:05:48.455Z,998.18
2022-10-15T08:06:28.948Z,998.27
2022-10-15T08:07:10.190Z,998.21
2022-10-15T08:07:50.011Z,998.21
2022-10-15T08:08:30.438Z,998.22
2022-10-15T08:09:10.978Z,998.2
2022-10-15T08:09:51.638Z,998.18
2022-10-15T08:10:32.184Z,998.19
2022-10-15T08:11:12.641Z,998.2
2022-10-15T08:11:53.173Z,998.2
2022-10-15T08:12:33.628Z,998.19
2022-10-15T08:13:14.149Z,998.23
2022-10-15T08:13:55.322Z,998.22
2022-10-15T08:14:35.774Z,998.19
2022-10-15T08:15:16.290Z,998.16
2022-10-15T08:15:57.868Z,998.21
2022-10-15T08:16:37.412Z,998.19
2022-10-15T08:17:17.915Z,998.16
2022-10-15T08:17:58.465Z,998.23
2022-10-15T08:18:39.052Z,998.19
2022-10-15T08:19:19.970Z,998.16
2022-10-15T08:20:00.507Z,998.17
2022-10-15T08:20:40.952Z,998.15
2022-10-15T08:21:21.410Z,998.18
2022-10-15T08:22:01.949Z,998.19
2022-10-15T08:25:00.954Z,998.08
2022-10-15T08:25:41.555Z,998.11
2022-10-15T08:26:22.035Z,998.07
2022-10-15T08:27:02.480Z,998.13
2022-10-15T08:27:42.961Z,998.12
2022-10-15T08:28:23.578Z,998.17
2022-10-15T08:29:04.045Z,998.1
2022-10-15T08:29:44.558Z,998.09
2022-10-15T08:30:24.979Z,998.06
2022-10-15T08:31:05.832Z,998.06
2022-10-15T08:31:45.908Z,998.05
2022-10-15T08:32:26.671Z,998.04
2022-10-15T08:33:07.156Z,998.03
2022-10-15T08:33:47.587Z,998.02
2022-10-15T08:34:28.096Z,998.04
2022-10-15T08:35:08.567Z,998.03
2022-10-15T08:35:49.782Z,998.04
2022-10-15T08:36:30.198Z,998.06
2022-10-15T08:37:51.251Z,997.99
2022-10-15T08:41:05.391Z,997.93
2022-10-15T08:41:45.977Z,997.95
2022-10-15T08:42:26.541Z,997.95
2022-10-15T08:43:06.927Z,997.89
2022-10-15T08:43:47.441Z,997.93
2022-10-15T08:44:27.916Z,997.95
2022-10-15T08:45:08.424Z,997.96
2022-10-15T08:45:48.838Z,997.96
2022-10-15T08:46:29.311Z,997.94
2022-10-15T08:47:09.866Z,997.96
2022-10-15T08:47:50.288Z,997.92
2022-10-15T08:48:30.809Z,997.92
2022-10-15T08:49:11.349Z,997.95
2022-10-15T08:49:51.810Z,997.92
2022-10-15T08:50:33.070Z,997.96
2022-10-15T08:53:31.848Z,997.94
2022-10-15T08:54:12.364Z,997.92
2022-10-15T08:54:52.979Z,997.94
2022-10-15T08:55:33.204Z,997.93
2022-10-15T08:56:13.768Z,997.92
2022-10-15T08:56:54.224Z,997.9
2022-10-15T08:57:34.742Z,997.88
2022-10-15T08:58:15.322Z,997.89
2022-10-15T08:59:36.384Z,997.87
2022-10-15T09:00:16.809Z,997.9
2022-10-15T09:00:57.296Z,997.85
2022-10-15T09:01:37.774Z,997.92
2022-10-15T09:02:18.328Z,997.9
2022-10-15T09:02:59.137Z,997.87
2022-10-15T09:03:39.397Z,997.89
2022-10-15T09:04:19.892Z,997.93
2022-10-15T09:05:00.333Z,997.88
2022-10-15T09:05:40.829Z,997.87
2022-10-15T09:06:21.309Z,997.89
2022-10-15T09:07:01.926Z,997.85
2022-10-15T09:07:42.488Z,997.88
2022-10-15T09:08:22.944Z,997.93
2022-10-15T09:09:03.572Z,997.87
2022-10-15T09:09:43.929Z,997.91
2022-10-15T09:10:24.390Z,997.87
2022-10-15T09:11:04.848Z,997.86
2022-10-15T09:14:41.724Z,997.94
2022-10-15T09:15:24.135Z,997.92
2022-10-15T09:16:04.259Z,997.94
2022-10-15T09:16:45.651Z,997.95
2022-10-15T09:17:27.208Z,997.95
2022-10-15T09:18:07.996Z,997.99
2022-10-15T09:18:49.170Z,998.03
2022-10-15T09:19:30.225Z,997.98
2022-10-15T09:20:11.656Z,998.01
2022-10-15T09:20:53.035Z,997.99
2022-10-15T09:21:34.127Z,998.02
2022-10-15T09:22:15.088Z,997.99
2022-10-15T09:22:56.438Z,997.99
2022-10-15T09:23:37.824Z,997.96
2022-10-15T09:24:18.794Z,997.99
2022-10-15T09:24:59.807Z,998
2022-10-15T09:25:40.770Z,998.01
2022-10-15T09:26:21.927Z,997.94
2022-10-15T09:27:02.988Z,997.99
2022-10-15T09:27:43.892Z,997.92
2022-10-15T09:28:24.918Z,997.94
2022-10-15T09:29:05.925Z,997.92
2022-10-15T09:29:46.876Z,997.92
2022-10-15T09:30:28.001Z,998
2022-10-15T09:31:09.057Z,997.85
2022-10-15T09:36:25.948Z,997.81
2022-10-15T09:37:06.524Z,997.84
2022-10-15T09:37:47.084Z,997.82
2022-10-15T09:38:27.578Z,997.87
2022-10-15T09:39:08.114Z,997.82
2022-10-15T09:40:29.971Z,997.85
2022-10-15T09:41:10.456Z,997.76
2022-10-15T09:41:50.996Z,997.84
2022-10-15T09:42:31.498Z,997.84
2022-10-15T09:43:11.943Z,997.82
2022-10-15T09:43:52.418Z,997.86
2022-10-15T09:44:33.023Z,997.84
2022-10-15T09:45:14.380Z,997.81
2022-10-15T09:45:54.524Z,997.74
2022-10-15T09:46:34.994Z,997.77
2022-10-15T09:47:15.564Z,997.72
2022-10-15T09:47:56.137Z,997.69
2022-10-15T09:48:36.586Z,997.72
2022-10-15T09:49:17.059Z,997.66
2022-10-15T09:49:57.564Z,997.63
2022-10-15T09:50:38.078Z,997.65
2022-10-15T09:51:18.685Z,997.65
2022-10-15T09:51:59.188Z,997.63
2022-10-15T09:52:39.677Z,997.62
2022-10-15T09:53:22.194Z,997.57
2022-10-15T09:54:00.719Z,997.62
2022-10-15T09:54:41.292Z,997.57
2022-10-15T09:55:21.846Z,997.62
2022-10-15T09:56:02.314Z,997.54
2022-10-15T09:56:42.924Z,997.58
2022-10-15T09:57:23.384Z,997.61
2022-10-15T09:58:03.901Z,997.56
2022-10-15T09:58:44.413Z,997.59
2022-10-15T10:00:05.354Z,997.6
2022-10-15T10:00:45.892Z,997.57
2022-10-15T10:01:26.453Z,997.59
2022-10-15T10:02:07.010Z,997.6
2022-10-15T10:02:47.475Z,997.59
2022-10-15T10:03:27.927Z,997.58
2022-10-15T10:04:08.410Z,997.58
2022-10-15T10:04:48.901Z,997.57
2022-10-15T10:05:29.400Z,997.58
2022-10-15T10:06:09.976Z,997.61
2022-10-15T10:06:50.500Z,997.57
2022-10-15T10:07:31.129Z,997.59
2022-10-15T10:08:11.581Z,997.54
2022-10-15T10:08:52.240Z,997.55
2022-10-15T10:09:32.637Z,997.53
2022-10-15T10:10:13.175Z,997.53
2022-10-15T10:10:53.672Z,997.48
2022-10-15T10:11:34.218Z,997.53
2022-10-15T10:12:14.735Z,997.52
2022-10-15T10:12:55.189Z,997.56
2022-10-15T10:13:35.748Z,997.52
2022-10-15T10:14:16.298Z,997.5
2022-10-15T10:14:56.733Z,997.49
2022-10-15T10:15:37.302Z,997.49
2022-10-15T10:16:17.772Z,997.48
2022-10-15T10:16:58.299Z,997.49
2022-10-15T10:17:38.837Z,997.54
2022-10-15T10:19:00.617Z,997.5
2022-10-15T10:19:41.318Z,997.45
2022-10-15T10:20:21.751Z,997.51
2022-10-15T10:21:02.323Z,997.5
2022-10-15T10:21:42.828Z,997.51
2022-10-15T10:22:23.769Z,997.53
2022-10-15T10:23:04.023Z,997.53
2022-10-15T10:23:44.673Z,997.59
2022-10-15T10:24:25.111Z,997.51
2022-10-15T10:25:05.657Z,997.5
2022-10-15T10:25:46.101Z,997.59
2022-10-15T10:26:26.663Z,997.53
2022-10-15T10:27:07.137Z,997.52
2022-10-15T10:27:47.559Z,997.58
2022-10-15T10:28:28.059Z,997.5
2022-10-15T10:29:15.716Z,997.5
2022-10-15T10:29:49.078Z,997.51
2022-10-15T10:30:29.627Z,997.47
2022-10-15T10:31:10.052Z,997.5
2022-10-15T10:31:50.647Z,997.56
2022-10-15T10:32:31.095Z,997.5
2022-10-15T10:33:11.592Z,997.51
2022-10-15T10:33:52.132Z,997.52
2022-10-15T10:34:32.662Z,997.52
2022-10-15T10:35:13.235Z,997.52
2022-10-15T10:35:53.759Z,997.62
2022-10-15T10:36:34.380Z,997.61
2022-10-15T10:37:14.859Z,997.55
2022-10-15T10:37:55.279Z,997.48
2022-10-15T10:38:35.769Z,997.68
2022-10-15T10:39:16.270Z,997.54
2022-10-15T10:39:56.818Z,997.48
2022-10-15T10:40:37.329Z,997.49
2022-10-15T10:41:17.808Z,997.5
2022-10-15T10:41:58.324Z,997.41
2022-10-15T10:42:39.444Z,997.46
2022-10-15T10:43:19.955Z,997.52
2022-10-15T10:44:00.481Z,997.49
2022-10-15T10:44:41.004Z,997.56
2022-10-15T10:45:21.582Z,997.53
2022-10-15T10:46:02.094Z,997.5
2022-10-15T10:46:42.556Z,997.52
2022-10-15T10:47:23.407Z,997.48
2022-10-15T10:48:03.880Z,997.47
2022-10-15T10:48:44.393Z,997.43
2022-10-15T10:49:24.926Z,997.5
2022-10-15T10:50:05.425Z,997.47
2022-10-15T10:50:45.937Z,997.37
2022-10-15T10:51:26.414Z,997.54
2022-10-15T10:52:06.925Z,997.45
2022-10-15T10:52:47.457Z,997.4
2022-10-15T10:53:28.013Z,997.46
2022-10-15T10:54:09.398Z,997.48
2022-10-15T10:54:49.964Z,997.48
2022-10-15T10:55:30.497Z,997.45
2022-10-15T10:56:10.998Z,997.46
2022-10-15T10:56:51.493Z,997.42
2022-10-15T10:57:32.009Z,997.46
2022-10-15T10:58:12.494Z,997.45
2022-10-15T10:58:52.976Z,997.5